Time;durP1;ratioP1;P1;durP2;ratioP2;P2;SDS_P1;SDS_P2;PMS_P1;PMS_P2;Temp;Humidity;BMP_temperature;BMP_pressure;BME280_temperature;BME280_humidity;BME280_pressure;Samples;Min_cycle;Max_cycle;Signal;HPM_P1;HPM_P2
2021/05/17 00:02:28;;;;;;;0.80;0.50;;;;;;;;;;4862478;29;20590;-76
2021/05/17 00:04:56;;;;;;;13.53;8.07;;;;;;;;;;4859432;29;20237;-78
2021/05/17 00:07:24;;;;;;;0.77;0.50;;;;;;;;;;4867165;29;20259;-77
2021/05/17 00:09:52;;;;;;;2.20;0.60;;;;;;;;;;4889932;29;20241;-77
2021/05/17 00:12:21;;;;;;;0.60;0.60;;;;;;;;;;4890023;29;20253;-77
2021/05/17 00:14:49;;;;;;;1.07;0.70;;;;;;;;;;4882967;29;20320;-77
2021/05/17 00:17:17;;;;;;;1.73;0.57;;;;;;;;;;4875194;29;20237;-77
2021/05/17 00:19:46;;;;;;;1.53;0.80;;;;;;;;;;4889482;29;20233;-77
2021/05/17 00:22:14;;;;;;;1.10;0.73;;;;;;;;;;4871862;29;20229;-80
2021/05/17 00:24:42;;;;;;;2.00;0.70;;;;;;;;;;4874688;29;20229;-78
2021/05/17 00:27:12;;;;;;;0.70;0.60;;;;;;;;;;4874082;29;20491;-77
2021/05/17 00:29:40;;;;;;;1.47;0.70;;;;;;;;;;4886976;29;20225;-81
2021/05/17 00:32:09;;;;;;;1.27;0.60;;;;;;;;;;4875735;29;20241;-77
2021/05/17 00:34:38;;;;;;;1.40;0.70;;;;;;;;;;4884203;29;20235;-77
2021/05/17 00:37:07;;;;;;;1.77;0.97;;;;;;;;;;4874213;29;20246;-76
2021/05/17 00:39:36;;;;;;;0.70;0.60;;;;;;;;;;4870017;29;20245;-77
2021/05/17 00:42:04;;;;;;;1.83;0.80;;;;;;;;;;4883168;29;20238;-76
2021/05/17 00:44:33;;;;;;;0.53;0.53;;;;;;;;;;4871370;29;20234;-78
2021/05/17 00:47:01;;;;;;;0.73;0.73;;;;;;;;;;4872984;29;20249;-77
2021/05/17 00:49:30;;;;;;;0.90;0.70;;;;;;;;;;4891944;29;20771;-77
2021/05/17 00:51:59;;;;;;;2.13;0.70;;;;;;;;;;4889817;29;20229;-77
2021/05/17 00:54:28;;;;;;;2.00;0.70;;;;;;;;;;4870958;29;20234;-79
2021/05/17 00:56:57;;;;;;;1.07;0.70;;;;;;;;;;4884099;29;20708;-76
2021/05/17 00:59:26;;;;;;;1.33;0.90;;;;;;;;;;4875679;29;20237;-77
2021/05/17 01:01:54;;;;;;;1.77;1.00;;;;;;;;;;4867690;29;20234;-77
2021/05/17 01:04:33;;;;;;;2.53;0.70;;;;;;;;;;4888225;29;20232;-77
2021/05/17 01:07:02;;;;;;;3.10;0.80;;;;;;;;;;4859333;29;20241;-77
2021/05/17 01:09:32;;;;;;;0.83;0.60;;;;;;;;;;4885965;29;20250;-77
2021/05/17 01:12:01;;;;;;;1.57;0.70;;;;;;;;;;4887515;29;20233;-77
2021/05/17 01:14:33;;;;;;;1.90;0.80;;;;;;;;;;4890362;29;20240;-77
2021/05/17 01:17:02;;;;;;;0.70;0.70;;;;;;;;;;4874410;29;20699;-77
2021/05/17 01:19:34;;;;;;;2.03;0.87;;;;;;;;;;4892329;29;20262;-77
2021/05/17 01:22:09;;;;;;;0.97;0.80;;;;;;;;;;4887053;29;20229;-77
2021/05/17 01:24:41;;;;;;;3.23;0.80;;;;;;;;;;4877403;29;20282;-77
2021/05/17 01:27:10;;;;;;;2.40;0.73;;;;;;;;;;4865676;29;20233;-77
2021/05/17 01:29:40;;;;;;;4.80;1.67;;;;;;;;;;4871149;29;20229;-77
2021/05/17 01:32:10;;;;;;;2.03;0.70;;;;;;;;;;4873901;29;20229;-77
2021/05/17 01:34:40;;;;;;;1.80;0.90;;;;;;;;;;4880172;29;20743;-78
2021/05/17 01:37:09;;;;;;;1.80;0.80;;;;;;;;;;4890462;29;20252;-78
2021/05/17 01:39:37;;;;;;;5.03;0.80;;;;;;;;;;4890007;29;20626;-77
2021/05/17 01:42:08;;;;;;;2.40;1.10;;;;;;;;;;4848764;29;20232;-77
2021/05/17 01:44:38;;;;;;;2.57;0.80;;;;;;;;;;4874990;29;20702;-77
2021/05/17 01:47:06;;;;;;;2.00;0.80;;;;;;;;;;4869460;29;20234;-77
2021/05/17 01:49:38;;;;;;;4.00;1.00;;;;;;;;;;4874464;29;20234;-76
2021/05/17 01:52:07;;;;;;;2.03;0.90;;;;;;;;;;4873383;29;20633;-76
2021/05/17 01:54:41;;;;;;;4.03;1.03;;;;;;;;;;4888402;29;20743;-77
2021/05/17 01:57:11;;;;;;;2.63;1.10;;;;;;;;;;4867950;29;20236;-77
2021/05/17 01:59:39;;;;;;;2.50;1.00;;;;;;;;;;4882557;29;20241;-76
2021/05/17 02:02:08;;;;;;;2.50;1.07;;;;;;;;;;4876072;29;20606;-78
2021/05/17 02:04:37;;;;;;;1.17;1.00;;;;;;;;;;4873693;29;20608;-76
2021/05/17 02:07:06;;;;;;;2.53;1.00;;;;;;;;;;4882856;29;20234;-76
2021/05/17 02:09:37;;;;;;;2.80;1.10;;;;;;;;;;4888693;29;20229;-77
2021/05/17 02:12:08;;;;;;;2.77;1.03;;;;;;;;;;4881951;29;20317;-76
2021/05/17 02:14:52;;;;;;;2.23;1.13;;;;;;;;;;4885072;29;20241;-76
2021/05/17 02:17:22;;;;;;;1.43;1.00;;;;;;;;;;4886378;29;20274;-76
2021/05/17 02:19:51;;;;;;;2.23;1.20;;;;;;;;;;4874036;29;20241;-76
2021/05/17 02:22:19;;;;;;;2.03;1.20;;;;;;;;;;4888199;29;20233;-77
2021/05/17 02:25:00;;;;;;;1.60;1.20;;;;;;;;;;4870270;29;20735;-76
2021/05/17 02:27:29;;;;;;;3.93;1.50;;;;;;;;;;4886050;29;20229;-76
2021/05/17 02:29:59;;;;;;;2.63;1.50;;;;;;;;;;4878341;29;20259;-77
2021/05/17 02:32:27;;;;;;;4.20;1.30;;;;;;;;;;4857924;29;20233;-76
2021/05/17 02:34:58;;;;;;;5.27;1.53;;;;;;;;;;4873293;29;20620;-76
2021/05/17 02:37:27;;;;;;;4.83;1.67;;;;;;;;;;4874467;29;20229;-76
2021/05/17 02:39:58;;;;;;;2.40;1.30;;;;;;;;;;4886578;29;20725;-76
2021/05/17 02:42:28;;;;;;;4.77;1.40;;;;;;;;;;4888934;29;20237;-76
2021/05/17 02:44:57;;;;;;;6.93;1.70;;;;;;;;;;4857720;29;20221;-76
2021/05/17 02:47:26;;;;;;;3.93;1.47;;;;;;;;;;4888567;29;20256;-77
2021/05/17 02:49:55;;;;;;;3.83;1.60;;;;;;;;;;4871923;29;20236;-77
2021/05/17 02:52:23;;;;;;;4.73;1.50;;;;;;;;;;4872039;29;20234;-76
2021/05/17 02:54:58;;;;;;;4.60;1.50;;;;;;;;;;4888545;29;20723;-75
2021/05/17 02:57:38;;;;;;;4.50;1.47;;;;;;;;;;4888926;29;20236;-76
2021/05/17 03:00:10;;;;;;;3.37;1.30;;;;;;;;;;4890153;29;20244;-76
2021/05/17 03:02:54;;;;;;;4.77;1.53;;;;;;;;;;4868027;29;20229;-76
2021/05/17 03:05:23;;;;;;;5.17;1.27;;;;;;;;;;4867219;29;20237;-75
2021/05/17 03:08:00;;;;;;;4.53;1.40;;;;;;;;;;4864345;29;20233;-75
2021/05/17 03:10:31;;;;;;;2.50;1.47;;;;;;;;;;4879325;29;20240;-75
2021/05/17 03:13:04;;;;;;;1.83;0.93;;;;;;;;;;4885631;29;20233;-75
2021/05/17 03:15:33;;;;;;;5.20;1.53;;;;;;;;;;4871665;29;20241;-77
2021/05/17 03:18:05;;;;;;;4.07;1.13;;;;;;;;;;4886745;29;20237;-76
2021/05/17 03:20:34;;;;;;;7.43;1.73;;;;;;;;;;4888432;29;20620;-76
2021/05/17 03:23:08;;;;;;;2.93;1.30;;;;;;;;;;4881355;29;20245;-76
2021/05/17 03:25:36;;;;;;;3.67;1.33;;;;;;;;;;4883581;29;20230;-76
2021/05/17 03:28:05;;;;;;;3.73;1.10;;;;;;;;;;4878826;29;20241;-76
2021/05/17 03:30:33;;;;;;;3.73;1.67;;;;;;;;;;4874286;29;20244;-76
2021/05/17 03:33:01;;;;;;;3.93;1.30;;;;;;;;;;4880511;29;20230;-76
2021/05/17 03:35:30;;;;;;;3.50;1.40;;;;;;;;;;4864858;29;20601;-76
2021/05/17 03:37:58;;;;;;;2.57;0.90;;;;;;;;;;4858391;29;20740;-75
2021/05/17 03:40:26;;;;;;;4.13;1.20;;;;;;;;;;4877163;29;20240;-75
2021/05/17 03:42:54;;;;;;;3.97;1.17;;;;;;;;;;4873747;29;20762;-76
2021/05/17 03:45:22;;;;;;;4.70;1.77;;;;;;;;;;4889381;29;20766;-75
2021/05/17 03:47:50;;;;;;;5.27;1.30;;;;;;;;;;4876224;29;20629;-75
2021/05/17 03:50:19;;;;;;;4.90;1.30;;;;;;;;;;4876113;29;20240;-76
2021/05/17 03:52:47;;;;;;;5.03;1.40;;;;;;;;;;4874533;29;20233;-76
2021/05/17 03:55:16;;;;;;;4.23;1.10;;;;;;;;;;4875858;29;20229;-76
2021/05/17 03:57:44;;;;;;;3.07;1.20;;;;;;;;;;4878612;29;20233;-76
2021/05/17 04:00:13;;;;;;;5.13;1.30;;;;;;;;;;4876986;29;20284;-76
2021/05/17 04:02:44;;;;;;;4.13;1.17;;;;;;;;;;4886987;29;20226;-76
2021/05/17 04:05:28;;;;;;;7.43;1.53;;;;;;;;;;4886907;29;20232;-76
2021/05/17 04:13:32;;;;;;;4.33;2.07;;;;;;;;;;4856195;29;20241;-76
2021/05/17 04:16:00;;;;;;;2.93;1.17;;;;;;;;;;4884700;29;20234;-75
2021/05/17 04:18:28;;;;;;;5.40;1.30;;;;;;;;;;4873742;29;20236;-76
2021/05/17 04:20:56;;;;;;;3.50;1.33;;;;;;;;;;4889413;29;20252;-77
2021/05/17 04:23:28;;;;;;;4.97;1.60;;;;;;;;;;4891207;29;20213;-79
2021/05/17 04:25:56;;;;;;;3.70;1.23;;;;;;;;;;4894044;29;20222;-80
2021/05/17 04:28:25;;;;;;;4.13;1.77;;;;;;;;;;4880198;29;20237;-77
2021/05/17 04:30:53;;;;;;;5.40;1.70;;;;;;;;;;4885530;29;20489;-77
2021/05/17 04:33:23;;;;;;;6.30;1.67;;;;;;;;;;4864552;29;20234;-78
2021/05/17 04:35:51;;;;;;;3.00;1.50;;;;;;;;;;4874047;29;20229;-77
2021/05/17 04:38:20;;;;;;;6.00;1.77;;;;;;;;;;4874235;29;20237;-79
2021/05/17 04:40:49;;;;;;;6.87;2.00;;;;;;;;;;4866881;29;20225;-79
2021/05/17 04:43:17;;;;;;;5.67;1.70;;;;;;;;;;4875041;29;20226;-78
2021/05/17 04:45:45;;;;;;;4.97;1.67;;;;;;;;;;4870481;29;20226;-81
2021/05/17 04:48:13;;;;;;;3.77;1.57;;;;;;;;;;4872696;29;20244;-78
2021/05/17 04:50:41;;;;;;;7.70;1.60;;;;;;;;;;4889184;29;20233;-78
2021/05/17 04:53:09;;;;;;;3.53;1.40;;;;;;;;;;4872793;29;20229;-78
2021/05/17 04:55:37;;;;;;;5.37;1.70;;;;;;;;;;4873665;29;20699;-78
2021/05/17 04:58:08;;;;;;;6.60;2.13;;;;;;;;;;4858872;29;20249;-78
2021/05/17 05:00:36;;;;;;;4.37;1.47;;;;;;;;;;4885553;29;20248;-77
2021/05/17 05:03:05;;;;;;;3.27;1.03;;;;;;;;;;4874936;29;20477;-77
2021/05/17 05:05:33;;;;;;;5.80;1.70;;;;;;;;;;4859773;29;20229;-78
2021/05/17 05:08:01;;;;;;;6.00;1.30;;;;;;;;;;4875762;29;20718;-77
2021/05/17 05:10:29;;;;;;;3.70;1.23;;;;;;;;;;4860626;29;20592;-77
2021/05/17 05:13:04;;;;;;;6.80;1.60;;;;;;;;;;4856854;29;20234;-78
2021/05/17 05:15:33;;;;;;;3.90;1.40;;;;;;;;;;4855582;29;20237;-77
2021/05/17 05:18:01;;;;;;;5.90;1.40;;;;;;;;;;4886770;29;20237;-79
2021/05/17 05:20:30;;;;;;;5.20;1.30;;;;;;;;;;4889770;29;20234;-77
2021/05/17 05:23:01;;;;;;;3.23;1.40;;;;;;;;;;4888315;29;20237;-78
2021/05/17 05:25:38;;;;;;;2.90;1.50;;;;;;;;;;4890182;29;20233;-78
2021/05/17 05:28:06;;;;;;;3.23;1.27;;;;;;;;;;4877051;29;20248;-78
2021/05/17 05:30:48;;;;;;;5.33;1.47;;;;;;;;;;4874251;29;20708;-78
2021/05/17 05:33:17;;;;;;;4.00;1.20;;;;;;;;;;4879957;29;20239;-77
2021/05/17 05:35:46;;;;;;;3.63;1.27;;;;;;;;;;4888300;29;20250;-77
2021/05/17 05:38:14;;;;;;;5.50;1.10;;;;;;;;;;4878769;29;20264;-78
2021/05/17 05:40:42;;;;;;;4.20;1.20;;;;;;;;;;4873403;29;20234;-78
2021/05/17 05:43:11;;;;;;;2.83;1.30;;;;;;;;;;4890106;29;20232;-78
2021/05/17 05:45:44;;;;;;;6.63;1.80;;;;;;;;;;4877269;29;20233;-78
2021/05/17 05:48:13;;;;;;;4.97;1.20;;;;;;;;;;4892163;29;20234;-81
2021/05/17 05:50:46;;;;;;;4.40;1.10;;;;;;;;;;4884259;29;20598;-77
2021/05/17 05:53:14;;;;;;;6.20;1.50;;;;;;;;;;4891755;29;20240;-82
2021/05/17 05:55:42;;;;;;;4.33;1.53;;;;;;;;;;4888192;29;20234;-77
2021/05/17 05:58:10;;;;;;;5.50;1.30;;;;;;;;;;4871729;29;20591;-78
2021/05/17 06:00:38;;;;;;;3.30;1.30;;;;;;;;;;4890513;29;20598;-78
2021/05/17 06:03:07;;;;;;;3.13;1.00;;;;;;;;;;4876116;29;20232;-78
2021/05/17 06:05:35;;;;;;;4.63;1.23;;;;;;;;;;4879766;29;20236;-78
2021/05/17 06:08:04;;;;;;;5.87;1.27;;;;;;;;;;4885174;29;20289;-78
2021/05/17 06:10:32;;;;;;;2.90;0.93;;;;;;;;;;4876925;29;20437;-79
2021/05/17 06:13:02;;;;;;;8.97;1.50;;;;;;;;;;4870048;29;20610;-78
2021/05/17 06:15:30;;;;;;;10.13;1.10;;;;;;;;;;4884504;29;20240;-78
2021/05/17 06:17:59;;;;;;;1.97;1.03;;;;;;;;;;4864805;29;20720;-78
2021/05/17 06:20:28;;;;;;;2.30;1.20;;;;;;;;;;4872618;29;20225;-77
2021/05/17 06:22:57;;;;;;;6.17;1.43;;;;;;;;;;4864035;29;20233;-77
2021/05/17 06:25:26;;;;;;;5.10;1.20;;;;;;;;;;4869678;29;20229;-77
2021/05/17 06:27:56;;;;;;;3.57;1.20;;;;;;;;;;4860145;29;20604;-77
2021/05/17 06:30:26;;;;;;;3.87;1.10;;;;;;;;;;4886689;29;20707;-78
2021/05/17 06:32:55;;;;;;;5.20;1.17;;;;;;;;;;4859222;29;20229;-79
2021/05/17 06:35:26;;;;;;;3.60;0.83;;;;;;;;;;4865975;29;20236;-78
2021/05/17 06:37:55;;;;;;;3.97;1.00;;;;;;;;;;4868744;29;20226;-79
2021/05/17 06:40:23;;;;;;;4.87;0.90;;;;;;;;;;4860230;29;20233;-78
2021/05/17 06:42:51;;;;;;;5.20;1.23;;;;;;;;;;4864799;29;20575;-78
2021/05/17 06:45:20;;;;;;;5.50;1.23;;;;;;;;;;4867694;29;20229;-77
2021/05/17 06:47:49;;;;;;;3.83;1.10;;;;;;;;;;4869276;29;20599;-78
2021/05/17 06:50:18;;;;;;;3.00;1.10;;;;;;;;;;4872134;29;20230;-78
2021/05/17 06:52:46;;;;;;;3.63;1.00;;;;;;;;;;4867963;29;20237;-78
2021/05/17 06:55:19;;;;;;;1.47;0.80;;;;;;;;;;4856811;29;20245;-78
2021/05/17 06:58:02;;;;;;;1.67;0.80;;;;;;;;;;4857557;29;20237;-78
2021/05/17 07:00:31;;;;;;;4.07;1.17;;;;;;;;;;4873821;29;20236;-78
2021/05/17 07:03:02;;;;;;;4.20;1.10;;;;;;;;;;4867401;29;20229;-81
2021/05/17 07:05:30;;;;;;;4.50;0.93;;;;;;;;;;4873682;29;20610;-78
2021/05/17 07:13:29;;;;;;;2.93;1.03;;;;;;;;;;4874378;29;20240;-79
2021/05/17 07:15:56;;;;;;;4.70;1.00;;;;;;;;;;4912537;29;20217;-79
2021/05/17 07:18:24;;;;;;;2.00;0.90;;;;;;;;;;4870272;29;20237;-78
2021/05/17 07:23:42;;;;;;;3.03;0.97;;;;;;;;;;4872267;29;20225;-76
2021/05/17 07:26:14;;;;;;;1.97;0.90;;;;;;;;;;4867081;29;20628;-76
2021/05/17 07:28:43;;;;;;;1.67;0.80;;;;;;;;;;4870799;29;20233;-77
2021/05/17 07:31:11;;;;;;;1.77;0.73;;;;;;;;;;4870994;29;21061;-78
2021/05/17 07:33:44;;;;;;;5.83;0.83;;;;;;;;;;4888946;29;20221;-79
2021/05/17 07:36:13;;;;;;;2.60;0.97;;;;;;;;;;4876253;29;20233;-78
2021/05/17 07:38:42;;;;;;;4.00;0.70;;;;;;;;;;4875105;29;20704;-79
2021/05/17 07:41:10;;;;;;;1.47;0.50;;;;;;;;;;4875538;29;20750;-78
2021/05/17 07:43:39;;;;;;;1.60;0.63;;;;;;;;;;4858951;29;20222;-77
2021/05/17 07:46:08;;;;;;;2.20;0.73;;;;;;;;;;4876034;29;20631;-78
2021/05/17 07:49:03;;;;;;;0.93;0.70;;;;;;;;;;4859425;29;20610;-76
2021/05/17 07:51:24;;;;;;;1.50;0.70;;;;;;;;;;4877048;29;20725;-76
2021/05/17 07:53:52;;;;;;;2.20;0.83;;;;;;;;;;4876489;29;20233;-77
2021/05/17 07:56:20;;;;;;;1.43;0.77;;;;;;;;;;4890873;29;20244;-76
2021/05/17 07:58:51;;;;;;;1.30;0.73;;;;;;;;;;4878366;29;20707;-76
2021/05/17 08:01:19;;;;;;;3.90;0.97;;;;;;;;;;4875419;29;20711;-78
2021/05/17 08:03:47;;;;;;;3.03;1.10;;;;;;;;;;4877841;29;20734;-77
2021/05/17 08:06:15;;;;;;;2.30;0.80;;;;;;;;;;4875549;29;20291;-77
2021/05/17 08:08:43;;;;;;;3.43;1.00;;;;;;;;;;4877813;29;20237;-77
2021/05/17 08:11:11;;;;;;;3.00;1.23;;;;;;;;;;4875481;29;20240;-78
2021/05/17 08:13:40;;;;;;;2.30;0.60;;;;;;;;;;4892458;29;20234;-79
2021/05/17 08:16:22;;;;;;;3.97;1.30;;;;;;;;;;4891392;29;20639;-78
2021/05/17 08:18:51;;;;;;;3.30;1.00;;;;;;;;;;4871795;29;20825;-78
2021/05/17 08:21:20;;;;;;;4.97;1.50;;;;;;;;;;4874145;29;20229;-78
2021/05/17 08:23:49;;;;;;;2.33;0.77;;;;;;;;;;4884346;29;20234;-79
2021/05/17 08:26:17;;;;;;;2.20;0.80;;;;;;;;;;4875405;29;20233;-79
2021/05/17 08:28:45;;;;;;;1.73;0.60;;;;;;;;;;4892085;29;20244;-78
2021/05/17 08:31:16;;;;;;;1.80;0.77;;;;;;;;;;4873635;29;20244;-78
2021/05/17 08:33:45;;;;;;;3.93;1.17;;;;;;;;;;4892245;29;20236;-80
2021/05/17 08:36:14;;;;;;;1.80;0.73;;;;;;;;;;4874722;29;20398;-79
2021/05/17 08:38:42;;;;;;;2.03;0.87;;;;;;;;;;4855668;29;20242;-77
2021/05/17 08:41:12;;;;;;;2.83;0.70;;;;;;;;;;4875927;29;20230;-77
2021/05/17 08:43:41;;;;;;;3.43;0.70;;;;;;;;;;4872278;29;20230;-78
2021/05/17 08:46:11;;;;;;;3.97;0.87;;;;;;;;;;4891132;29;20225;-78
2021/05/17 08:48:46;;;;;;;2.37;0.97;;;;;;;;;;4881869;29;20230;-78
2021/05/17 08:51:20;;;;;;;1.97;0.80;;;;;;;;;;4876671;29;20232;-78
2021/05/17 08:53:50;;;;;;;2.07;0.80;;;;;;;;;;4870595;29;20233;-77
2021/05/17 08:56:19;;;;;;;3.00;1.07;;;;;;;;;;4890701;29;20595;-75
2021/05/17 08:58:47;;;;;;;3.30;0.93;;;;;;;;;;4897989;29;20715;-76
2021/05/17 09:01:15;;;;;;;4.77;1.10;;;;;;;;;;4891877;29;20225;-75
2021/05/17 09:03:55;;;;;;;2.63;0.83;;;;;;;;;;4895550;29;20240;-76
2021/05/17 09:06:36;;;;;;;3.47;1.03;;;;;;;;;;4875910;29;20229;-75
2021/05/17 09:09:06;;;;;;;2.67;1.00;;;;;;;;;;4880578;29;20234;-78
2021/05/17 09:11:34;;;;;;;4.27;1.00;;;;;;;;;;4890121;29;20233;-77
2021/05/17 09:14:10;;;;;;;9.30;0.87;;;;;;;;;;4874946;29;20249;-78
2021/05/17 09:16:53;;;;;;;3.03;0.87;;;;;;;;;;4873092;29;20229;-78
2021/05/17 09:19:22;;;;;;;1.87;0.90;;;;;;;;;;4881474;29;20245;-78
2021/05/17 09:22:06;;;;;;;3.47;0.90;;;;;;;;;;4875094;29;20222;-78
2021/05/17 09:24:40;;;;;;;2.27;1.10;;;;;;;;;;4872883;29;20229;-77
2021/05/17 09:27:09;;;;;;;1.93;0.60;;;;;;;;;;4876721;29;20238;-77
2021/05/17 09:29:39;;;;;;;3.83;1.00;;;;;;;;;;4886900;29;20233;-78
2021/05/17 09:32:16;;;;;;;2.50;0.80;;;;;;;;;;4874556;29;20735;-79
2021/05/17 09:34:46;;;;;;;2.97;0.93;;;;;;;;;;4866124;29;20590;-77
2021/05/17 09:37:15;;;;;;;1.57;0.70;;;;;;;;;;4875320;29;20237;-76
2021/05/17 09:39:51;;;;;;;1.77;0.60;;;;;;;;;;4877512;29;20233;-77
2021/05/17 09:42:24;;;;;;;2.67;0.90;;;;;;;;;;4885283;29;20242;-78
2021/05/17 09:44:56;;;;;;;1.57;0.67;;;;;;;;;;4871960;29;20234;-77
2021/05/17 09:47:30;;;;;;;0.53;0.50;;;;;;;;;;4870325;29;20229;-77
2021/05/17 09:49:59;;;;;;;2.53;0.90;;;;;;;;;;4870629;29;20639;-77
2021/05/17 09:52:30;;;;;;;1.13;0.67;;;;;;;;;;4872175;29;20218;-77
2021/05/17 09:55:00;;;;;;;1.17;0.90;;;;;;;;;;4883993;29;20723;-77
2021/05/17 09:57:31;;;;;;;0.80;0.70;;;;;;;;;;4882254;29;20754;-77
2021/05/17 10:00:07;;;;;;;1.63;0.70;;;;;;;;;;4874304;29;20727;-77
2021/05/17 10:02:41;;;;;;;2.60;0.70;;;;;;;;;;4890807;29;20241;-78
2021/05/17 10:05:19;;;;;;;1.20;0.60;;;;;;;;;;4893831;29;20428;-78
2021/05/17 10:07:49;;;;;;;1.73;0.60;;;;;;;;;;4914737;29;20223;-79
2021/05/17 10:10:37;;;;;;;0.97;0.80;;;;;;;;;;4899947;29;20244;-76
2021/05/17 10:13:06;;;;;;;1.33;0.67;;;;;;;;;;4876082;29;20229;-77
2021/05/17 10:15:36;;;;;;;1.37;0.67;;;;;;;;;;4887651;29;20225;-77
2021/05/17 10:18:11;;;;;;;0.80;0.70;;;;;;;;;;4874360;29;20738;-78
2021/05/17 10:20:40;;;;;;;0.60;0.60;;;;;;;;;;4890159;29;20236;-78
2021/05/17 10:23:10;;;;;;;0.90;0.60;;;;;;;;;;4890982;29;20233;-77
2021/05/17 10:25:40;;;;;;;1.40;0.80;;;;;;;;;;4875395;29;20256;-77
2021/05/17 10:28:10;;;;;;;1.37;0.70;;;;;;;;;;4858408;29;20719;-78
2021/05/17 10:30:39;;;;;;;0.80;0.63;;;;;;;;;;4891243;29;20232;-77
2021/05/17 10:33:08;;;;;;;2.97;0.60;;;;;;;;;;4888106;29;20238;-78
2021/05/17 10:35:47;;;;;;;1.70;0.90;;;;;;;;;;4869079;29;20236;-77
2021/05/17 10:38:26;;;;;;;3.37;0.80;;;;;;;;;;4884534;29;20237;-77
2021/05/17 10:41:00;;;;;;;1.37;0.60;;;;;;;;;;4885417;29;20229;-76
2021/05/17 10:43:53;;;;;;;1.33;0.70;;;;;;;;;;4866110;29;20229;-76
2021/05/17 10:46:37;;;;;;;3.00;0.80;;;;;;;;;;4868771;29;20245;-76
2021/05/17 10:49:23;;;;;;;1.67;0.80;;;;;;;;;;4851543;29;20237;-75
2021/05/17 10:51:52;;;;;;;1.43;0.80;;;;;;;;;;4877846;29;20225;-76
2021/05/17 10:54:23;;;;;;;1.20;0.70;;;;;;;;;;4888422;29;20720;-76
2021/05/17 10:56:55;;;;;;;2.47;0.70;;;;;;;;;;4873069;29;20228;-76
2021/05/17 11:02:19;;;;;;;1.10;0.90;;;;;;;;;;4885161;29;20591;-76
2021/05/17 11:04:56;;;;;;;1.40;0.60;;;;;;;;;;4875394;29;20226;-76
2021/05/17 11:07:27;;;;;;;0.60;0.50;;;;;;;;;;4893181;29;20246;-75
2021/05/17 11:10:11;;;;;;;0.50;0.50;;;;;;;;;;4873412;29;20240;-75
2021/05/17 11:13:01;;;;;;;1.60;0.80;;;;;;;;;;4879055;29;20232;-76
2021/05/17 11:16:04;;;;;;;1.50;0.80;;;;;;;;;;4872595;29;20233;-76
2021/05/17 11:18:44;;;;;;;2.03;0.90;;;;;;;;;;4851803;29;20237;-75
2021/05/17 11:21:30;;;;;;;0.60;0.50;;;;;;;;;;4879524;29;20255;-76
2021/05/17 11:24:06;;;;;;;0.93;0.60;;;;;;;;;;4890173;29;20244;-75
2021/05/17 11:26:54;;;;;;;2.67;0.57;;;;;;;;;;4875604;29;20225;-75
2021/05/17 11:29:30;;;;;;;1.80;0.77;;;;;;;;;;4867381;29;20229;-76
2021/05/17 11:32:18;;;;;;;0.90;0.50;;;;;;;;;;4888991;29;20655;-77
2021/05/17 11:35:00;;;;;;;1.17;0.55;;;;;;;;;;4889919;29;20237;-75
2021/05/17 11:37:30;;;;;;;1.75;0.90;;;;;;;;;;4865617;29;20236;-76
2021/05/17 11:40:27;;;;;;;2.70;0.73;;;;;;;;;;4889887;29;20234;-76
2021/05/17 11:42:59;;;;;;;1.83;0.73;;;;;;;;;;4887356;29;20252;-78
2021/05/17 11:45:27;;;;;;;2.27;0.90;;;;;;;;;;4871125;29;20240;-77
2021/05/17 11:47:55;;;;;;;1.02;0.80;;;;;;;;;;4890705;29;20229;-76
2021/05/17 11:50:23;;;;;;;0.80;0.60;;;;;;;;;;4869290;29;20244;-77
2021/05/17 11:52:51;;;;;;;2.10;0.70;;;;;;;;;;4871684;29;20221;-76
2021/05/17 11:55:19;;;;;;;1.77;0.80;;;;;;;;;;4865271;29;20237;-76
2021/05/17 11:57:47;;;;;;;1.33;0.90;;;;;;;;;;4872643;29;20234;-76
2021/05/17 12:00:21;;;;;;;1.00;0.70;;;;;;;;;;4888913;29;20241;-76
2021/05/17 12:02:52;;;;;;;0.85;0.60;;;;;;;;;;4876375;29;20237;-75
2021/05/17 12:05:22;;;;;;;2.40;0.82;;;;;;;;;;4862572;29;20241;-76
2021/05/17 12:07:51;;;;;;;1.75;0.60;;;;;;;;;;4874934;29;20229;-76
2021/05/17 12:10:20;;;;;;;2.70;1.00;;;;;;;;;;4865729;29;20234;-77
2021/05/17 12:12:51;;;;;;;0.50;0.50;;;;;;;;;;4866012;29;20226;-77
2021/05/17 12:15:21;;;;;;;1.07;0.90;;;;;;;;;;4881920;29;20727;-77
2021/05/17 12:17:49;;;;;;;1.40;0.70;;;;;;;;;;4889184;29;20237;-78
2021/05/17 12:20:18;;;;;;;1.57;0.70;;;;;;;;;;4888331;29;20635;-77
2021/05/17 12:22:48;;;;;;;1.33;0.50;;;;;;;;;;4880645;29;20225;-76
2021/05/17 12:25:18;;;;;;;3.63;0.90;;;;;;;;;;4872947;29;20704;-77
2021/05/17 12:27:47;;;;;;;2.33;0.90;;;;;;;;;;4871697;29;20230;-77
2021/05/17 12:30:16;;;;;;;0.97;0.70;;;;;;;;;;4867518;29;20253;-77
2021/05/17 12:32:46;;;;;;;2.37;0.70;;;;;;;;;;4887248;29;20259;-77
2021/05/17 12:35:15;;;;;;;0.90;0.70;;;;;;;;;;4876539;29;20240;-77
2021/05/17 12:37:45;;;;;;;0.87;0.80;;;;;;;;;;4884545;29;20613;-77
2021/05/17 12:40:34;;;;;;;1.05;0.60;;;;;;;;;;4868171;29;20760;-77
2021/05/17 12:43:12;;;;;;;1.13;0.73;;;;;;;;;;4862630;29;20678;-74
2021/05/17 12:45:58;;;;;;;1.55;0.82;;;;;;;;;;4875026;29;20263;-77
2021/05/17 12:48:30;;;;;;;1.88;0.90;;;;;;;;;;4865609;29;20237;-77
2021/05/17 12:51:01;;;;;;;3.15;0.80;;;;;;;;;;4866778;29;20225;-77
2021/05/17 12:53:30;;;;;;;0.60;0.60;;;;;;;;;;4883540;29;20237;-75
2021/05/17 12:55:59;;;;;;;3.20;0.93;;;;;;;;;;4866243;29;20244;-75
2021/05/17 12:58:34;;;;;;;1.02;0.90;;;;;;;;;;4899181;29;20222;-75
2021/05/17 13:01:08;;;;;;;2.30;1.10;;;;;;;;;;4887797;29;20727;-75
2021/05/17 13:03:41;;;;;;;2.17;0.82;;;;;;;;;;4866092;29;20248;-75
2021/05/17 13:06:10;;;;;;;3.45;0.50;;;;;;;;;;4864824;29;20237;-74
2021/05/17 13:09:01;;;;;;;1.65;0.73;;;;;;;;;;4882148;29;20607;-74
2021/05/17 13:11:32;;;;;;;2.50;0.98;;;;;;;;;;4866771;29;20249;-75
2021/05/17 13:14:04;;;;;;;2.42;0.65;;;;;;;;;;4859068;29;20233;-75
2021/05/17 13:16:35;;;;;;;1.33;0.60;;;;;;;;;;4878888;29;20229;-75
2021/05/17 13:19:33;;;;;;;0.73;0.73;;;;;;;;;;4846751;29;20672;-75
2021/05/17 13:30:40;;;;;;;2.30;0.80;;;;;;;;;;4846374;29;20747;-76
2021/05/17 13:33:08;;;;;;;1.52;0.93;;;;;;;;;;4882616;29;20229;-75
2021/05/17 13:35:37;;;;;;;4.05;1.02;;;;;;;;;;4867873;29;20604;-75
2021/05/17 13:38:05;;;;;;;1.63;0.63;;;;;;;;;;4869122;29;21609;-75
2021/05/17 13:40:33;;;;;;;0.90;0.60;;;;;;;;;;4879124;29;20221;-76
2021/05/17 13:43:01;;;;;;;1.48;0.70;;;;;;;;;;4882252;29;20241;-76
2021/05/17 13:45:30;;;;;;;1.30;0.57;;;;;;;;;;4866407;29;20241;-75
2021/05/17 13:47:58;;;;;;;0.63;0.30;;;;;;;;;;4866069;29;20241;-76
2021/05/17 13:50:26;;;;;;;1.23;0.40;;;;;;;;;;4878712;29;20229;-75
2021/05/17 13:52:55;;;;;;;0.70;0.53;;;;;;;;;;4855936;29;20238;-75
2021/05/17 13:55:23;;;;;;;2.23;0.80;;;;;;;;;;4863311;29;20238;-75
2021/05/17 13:57:52;;;;;;;2.20;1.90;;;;;;;;;;4867093;29;20234;-78
2021/05/17 14:00:21;;;;;;;4.10;3.70;;;;;;;;;;4864959;29;20237;-76
2021/05/17 14:02:49;;;;;;;1.10;1.00;;;;;;;;;;4862442;29;20224;-75
2021/05/17 14:05:17;;;;;;;2.57;1.17;;;;;;;;;;4859573;29;20230;-76
2021/05/17 14:07:45;;;;;;;1.40;0.80;;;;;;;;;;4866273;29;20224;-76
2021/05/17 14:10:14;;;;;;;1.03;0.80;;;;;;;;;;4885250;29;20237;-75
2021/05/17 14:12:43;;;;;;;1.38;0.80;;;;;;;;;;4882330;29;20218;-74
2021/05/17 14:15:13;;;;;;;2.20;0.75;;;;;;;;;;4889309;29;20603;-75
2021/05/17 14:17:41;;;;;;;1.55;0.70;;;;;;;;;;4879093;29;20599;-75
2021/05/17 14:20:12;;;;;;;1.23;0.80;;;;;;;;;;4870064;29;20234;-75
2021/05/17 14:22:41;;;;;;;1.10;0.70;;;;;;;;;;4862758;29;20618;-75
2021/05/17 14:25:15;;;;;;;3.00;0.82;;;;;;;;;;4870699;29;20237;-74
2021/05/17 14:27:43;;;;;;;1.30;1.02;;;;;;;;;;4867568;29;20228;-75
2021/05/17 14:30:14;;;;;;;1.35;1.25;;;;;;;;;;4864164;29;20596;-77
2021/05/17 14:32:43;;;;;;;1.48;0.60;;;;;;;;;;4873400;29;20624;-75
2021/05/17 14:35:11;;;;;;;0.93;0.63;;;;;;;;;;4864651;29;20229;-75
2021/05/17 14:37:40;;;;;;;2.63;0.90;;;;;;;;;;4865153;29;20829;-76
2021/05/17 14:40:10;;;;;;;1.40;0.85;;;;;;;;;;4867499;29;20234;-76
2021/05/17 14:42:47;;;;;;;1.27;0.70;;;;;;;;;;4873892;29;20229;-75
2021/05/17 14:45:15;;;;;;;0.77;0.70;;;;;;;;;;4869556;29;20256;-74
2021/05/17 14:47:44;;;;;;;1.17;0.60;;;;;;;;;;4884316;29;20229;-74
2021/05/17 14:50:13;;;;;;;1.25;0.85;;;;;;;;;;4869285;29;20719;-75
2021/05/17 14:52:42;;;;;;;1.35;0.60;;;;;;;;;;4870489;29;20583;-75
2021/05/17 14:55:11;;;;;;;1.63;0.90;;;;;;;;;;4866197;29;20246;-74
2021/05/17 14:57:39;;;;;;;0.80;0.50;;;;;;;;;;4867503;29;20268;-74
2021/05/17 15:00:12;;;;;;;1.88;0.50;;;;;;;;;;4862606;29;20244;-75
2021/05/17 15:02:40;;;;;;;1.15;0.60;;;;;;;;;;4880521;29;20704;-75
2021/05/17 15:05:10;;;;;;;0.88;0.77;;;;;;;;;;4876630;29;20234;-75
2021/05/17 15:07:38;;;;;;;1.27;0.85;;;;;;;;;;4863654;29;20233;-74
2021/05/17 15:10:09;;;;;;;1.20;1.05;;;;;;;;;;4866920;29;20233;-75
2021/05/17 15:12:38;;;;;;;1.40;0.50;;;;;;;;;;4869598;29;20236;-75
2021/05/17 15:15:07;;;;;;;0.47;0.40;;;;;;;;;;4882576;29;20635;-75
2021/05/17 15:17:36;;;;;;;0.68;0.50;;;;;;;;;;4878478;29;20241;-75
2021/05/17 15:20:05;;;;;;;2.60;0.70;;;;;;;;;;4870366;29;20229;-75
2021/05/17 15:22:34;;;;;;;1.23;0.60;;;;;;;;;;4866813;29;20234;-77
2021/05/17 15:25:03;;;;;;;1.42;0.70;;;;;;;;;;4869591;29;20588;-75
2021/05/17 15:27:30;;;;;;;1.02;0.90;;;;;;;;;;4874783;29;20221;-74
2021/05/17 15:29:58;;;;;;;0.50;0.50;;;;;;;;;;4888354;29;20261;-74
2021/05/17 15:32:28;;;;;;;1.00;0.60;;;;;;;;;;4888822;29;20236;-76